Time;durP1;ratioP1;P1;durP2;ratioP2;P2;SDS_P1;SDS_P2;PMS_P1;PMS_P2;Temp;Humidity;BMP_temperature;BMP_pressure;BME280_temperature;BME280_humidity;BME280_pressure;Samples;Min_cycle;Max_cycle;Signal;HPM_P1;HPM_P2
2023/12/21 00:00:37;;;;;;;2.60;2.40;;;7.60;1.00;;;;;;5002661;28;20442;-79
2023/12/21 00:03:05;;;;;;;0.60;0.37;;;;;;;;;;5004037;28;20444;-79
2023/12/21 00:05:33;;;;;;;0.93;0.50;;;7.60;1.00;;;;;;5009488;28;20468;-78
2023/12/21 00:08:01;;;;;;;0.50;0.10;;;7.60;1.00;;;;;;5008587;28;20471;-77
2023/12/21 00:10:30;;;;;;;0.50;0.20;;;7.60;1.00;;;;;;5010903;28;20441;-79
2023/12/21 00:12:58;;;;;;;0.60;0.47;;;7.60;1.00;;;;;;4994756;28;20446;-80
2023/12/21 00:15:26;;;;;;;2.30;0.20;;;7.70;1.00;;;;;;4994380;28;20481;-80
2023/12/21 00:17:55;;;;;;;0.50;0.20;;;7.60;1.00;;;;;;5011846;28;20524;-80
2023/12/21 00:20:23;;;;;;;0.50;0.23;;;7.50;1.00;;;;;;5004039;28;20448;-80
2023/12/21 00:22:51;;;;;;;0.60;0.40;;;7.50;1.00;;;;;;5002154;28;20449;-80
2023/12/21 00:25:19;;;;;;;0.77;0.37;;;7.50;1.00;;;;;;5002802;28;20433;-80
2023/12/21 00:27:49;;;;;;;0.60;0.50;;;;;;;;;;4997004;28;20498;-80
2023/12/21 00:30:17;;;;;;;0.60;0.40;;;7.50;1.00;;;;;;4996197;28;20450;-80
2023/12/21 00:32:45;;;;;;;0.50;0.10;;;;;;;;;;5003823;28;20441;-80
2023/12/21 00:35:13;;;;;;;1.27;1.07;;;;;;;;;;4997152;28;20489;-80
2023/12/21 00:37:42;;;;;;;0.60;0.30;;;;;;;;;;5001833;28;20462;-80
2023/12/21 00:40:11;;;;;;;0.60;0.40;;;7.50;1.00;;;;;;4999559;28;20457;-80
2023/12/21 00:42:41;;;;;;;0.50;0.30;;;7.50;1.00;;;;;;4998646;28;20967;-80
2023/12/21 00:45:11;;;;;;;5.70;0.80;;;7.40;1.00;;;;;;4999717;28;20500;-80
2023/12/21 00:47:39;;;;;;;1.63;0.90;;;7.40;1.00;;;;;;5002458;28;20473;-80
2023/12/21 00:50:08;;;;;;;0.60;0.40;;;7.40;1.00;;;;;;4995206;28;20459;-80
2023/12/21 00:52:37;;;;;;;0.63;0.40;;;7.50;1.00;;;;;;5003338;28;20449;-79
2023/12/21 00:55:06;;;;;;;0.50;0.20;;;7.40;1.00;;;;;;5012809;28;20529;-79
2023/12/21 00:57:34;;;;;;;0.50;0.20;;;;;;;;;;5005933;28;20478;-79
2023/12/21 01:00:03;;;;;;;0.80;0.20;;;7.40;1.00;;;;;;5006394;28;20435;-79
2023/12/21 01:02:32;;;;;;;0.70;0.20;;;7.50;1.00;;;;;;4996931;28;20445;-79
2023/12/21 01:05:00;;;;;;;2.30;0.80;;;7.50;1.00;;;;;;4996949;28;20449;-80
2023/12/21 01:07:28;;;;;;;0.50;0.10;;;7.50;1.00;;;;;;5006590;28;20468;-80
2023/12/21 01:09:56;;;;;;;0.60;0.50;;;7.50;1.00;;;;;;5003644;28;20518;-80
2023/12/21 01:12:24;;;;;;;0.50;0.10;;;7.50;1.00;;;;;;5005311;28;20469;-78
2023/12/21 01:14:52;;;;;;;0.93;0.30;;;7.50;1.00;;;;;;5005222;28;20684;-80
2023/12/21 01:17:20;;;;;;;0.60;0.40;;;7.60;1.00;;;;;;5011897;28;20478;-77
2023/12/21 01:19:49;;;;;;;0.50;0.10;;;7.50;1.00;;;;;;5014368;28;20442;-80
2023/12/21 01:22:17;;;;;;;0.60;0.30;;;7.50;1.00;;;;;;5014940;28;20444;-78
2023/12/21 01:24:45;;;;;;;21.33;2.67;;;7.50;1.00;;;;;;5015603;28;20461;-78
2023/12/21 01:27:13;;;;;;;0.70;0.33;;;7.50;1.00;;;;;;5015659;28;20484;-78
2023/12/21 01:29:57;;;;;;;0.70;0.30;;;7.50;1.00;;;;;;5016249;28;20430;-79
2023/12/21 01:32:25;;;;;;;0.50;0.20;;;7.50;1.00;;;;;;5015900;28;20430;-79
2023/12/21 01:34:54;;;;;;;0.50;0.20;;;7.60;1.00;;;;;;5016058;28;20478;-77
2023/12/21 01:37:23;;;;;;;0.50;0.20;;;7.60;1.00;;;;;;5016491;28;20513;-79
2023/12/21 01:39:51;;;;;;;0.50;0.10;;;7.60;1.00;;;;;;5016743;28;20445;-79
2023/12/21 01:42:19;;;;;;;0.50;0.10;;;;;;;;;;5016891;28;20428;-79
2023/12/21 01:44:47;;;;;;;0.60;0.50;;;7.70;1.00;;;;;;5017080;28;20484;-78
2023/12/21 01:47:15;;;;;;;0.60;0.33;;;7.70;1.00;;;;;;5016159;28;20492;-78
2023/12/21 01:49:43;;;;;;;0.50;0.10;;;7.70;1.00;;;;;;5016314;28;20434;-78
2023/12/21 01:52:13;;;;;;;0.70;0.20;;;7.70;1.00;;;;;;5017397;28;20468;-77
2023/12/21 01:54:41;;;;;;;0.50;0.10;;;7.70;1.00;;;;;;5019566;28;20528;-77
2023/12/21 01:57:09;;;;;;;0.50;0.10;;;7.70;1.00;;;;;;5019202;28;20481;-77
2023/12/21 01:59:38;;;;;;;0.50;0.10;;;7.80;1.00;;;;;;5017427;28;20446;-77
2023/12/21 02:02:06;;;;;;;0.50;0.10;;;7.80;1.00;;;;;;5015595;28;20440;-78
2023/12/21 02:04:34;;;;;;;0.50;0.10;;;7.90;1.00;;;;;;5010589;28;20445;-76
2023/12/21 02:07:02;;;;;;;0.50;0.10;;;7.90;1.00;;;;;;5019512;28;20457;-77
2023/12/21 02:09:32;;;;;;;0.50;0.10;;;7.90;1.00;;;;;;5011446;28;20441;-77
2023/12/21 02:11:59;;;;;;;0.50;0.20;;;7.90;1.00;;;;;;5019236;28;20477;-77
2023/12/21 02:14:27;;;;;;;0.50;0.27;;;7.90;1.00;;;;;;5019448;28;20441;-77
2023/12/21 02:16:58;;;;;;;0.70;0.30;;;7.90;1.00;;;;;;5019747;28;20469;-76
2023/12/21 02:19:26;;;;;;;0.50;0.10;;;;;;;;;;5019308;28;20433;-77
2023/12/21 02:21:58;;;;;;;0.50;0.20;;;7.90;1.00;;;;;;5018120;28;20454;-79
2023/12/21 02:24:31;;;;;;;0.50;0.10;;;7.90;1.00;;;;;;5013089;28;20445;-80
2023/12/21 02:27:00;;;;;;;0.50;0.10;;;7.90;1.00;;;;;;5006789;28;20470;-80
2023/12/21 02:29:28;;;;;;;0.50;0.20;;;7.90;1.00;;;;;;5007394;28;20454;-80
2023/12/21 02:31:55;;;;;;;0.50;0.20;;;8.00;1.00;;;;;;5006697;28;20949;-79
2023/12/21 02:34:23;;;;;;;0.80;0.20;;;8.00;1.00;;;;;;5004184;28;20445;-80
2023/12/21 02:36:52;;;;;;;0.50;0.10;;;8.00;1.00;;;;;;5001532;28;20466;-80
2023/12/21 02:39:20;;;;;;;0.60;0.30;;;;;;;;;;5006193;28;20846;-80
2023/12/21 02:41:53;;;;;;;0.50;0.10;;;8.00;1.00;;;;;;5005322;28;20445;-78
2023/12/21 02:44:21;;;;;;;0.50;0.10;;;8.00;1.00;;;;;;5003150;28;20504;-80
2023/12/21 02:46:49;;;;;;;0.60;0.30;;;;;;;;;;5005198;28;20907;-80
2023/12/21 02:49:17;;;;;;;0.50;0.20;;;;;;;;;;5004653;28;20443;-80
2023/12/21 02:51:45;;;;;;;0.50;0.10;;;8.10;1.00;;;;;;5004518;28;20445;-80
2023/12/21 02:54:13;;;;;;;0.50;0.10;;;8.10;1.00;;;;;;5005387;28;20438;-80
2023/12/21 02:56:41;;;;;;;0.50;0.10;;;8.10;1.00;;;;;;5001711;28;20489;-78
2023/12/21 02:59:10;;;;;;;0.50;0.10;;;8.10;1.00;;;;;;4986709;28;20494;-80
2023/12/21 03:01:42;;;;;;;0.50;0.10;;;;;;;;;;5006759;28;20437;-78
2023/12/21 03:04:10;;;;;;;0.50;0.10;;;8.10;1.00;;;;;;5004488;28;20434;-78
2023/12/21 03:06:38;;;;;;;0.50;0.10;;;8.10;1.00;;;;;;4989309;28;20474;-78
2023/12/21 03:09:06;;;;;;;0.50;0.10;;;8.10;1.00;;;;;;5003913;28;20426;-77
2023/12/21 03:11:34;;;;;;;0.50;0.30;;;8.20;1.00;;;;;;5014840;28;20433;-77
2023/12/21 03:14:01;;;;;;;0.50;0.20;;;8.10;1.00;;;;;;5002870;28;20465;-80
2023/12/21 03:16:31;;;;;;;0.50;0.10;;;8.10;1.00;;;;;;5002918;28;20482;-78
2023/12/21 03:18:59;;;;;;;2.57;2.47;;;8.20;1.00;;;;;;4985733;28;20482;-79
2023/12/21 03:21:27;;;;;;;0.50;0.10;;;8.20;1.00;;;;;;4999382;28;20454;-77
2023/12/21 03:23:55;;;;;;;0.50;0.20;;;8.20;1.00;;;;;;5002532;28;20508;-79
2023/12/21 03:26:24;;;;;;;0.50;0.10;;;8.20;1.00;;;;;;5008486;28;20473;-78
2023/12/21 03:28:52;;;;;;;0.70;0.20;;;8.20;1.00;;;;;;4998625;28;20482;-77
2023/12/21 03:31:20;;;;;;;0.50;0.10;;;8.20;1.00;;;;;;5007527;28;20454;-78
2023/12/21 03:33:49;;;;;;;6.10;3.80;;;8.30;1.00;;;;;;5009604;28;20446;-78
2023/12/21 03:36:18;;;;;;;1.70;0.87;;;8.20;1.00;;;;;;5010666;28;20516;-78
2023/12/21 03:38:45;;;;;;;0.50;0.10;;;8.30;1.00;;;;;;5009769;28;20951;-79
2023/12/21 03:41:13;;;;;;;0.50;0.10;;;8.30;1.00;;;;;;5003505;28;20541;-81
2023/12/21 03:43:41;;;;;;;0.50;0.10;;;8.30;1.00;;;;;;5000761;28;20445;-78
2023/12/21 03:46:10;;;;;;;0.50;0.20;;;8.30;1.00;;;;;;5008783;28;20461;-78
2023/12/21 03:48:38;;;;;;;0.50;0.10;;;8.30;1.00;;;;;;5009848;28;20455;-79
2023/12/21 03:51:07;;;;;;;0.60;0.30;;;8.30;1.00;;;;;;5009531;28;20452;-79
2023/12/21 03:53:35;;;;;;;0.50;0.10;;;8.30;1.00;;;;;;5010367;28;20465;-79
2023/12/21 03:56:03;;;;;;;0.83;0.30;;;8.30;1.00;;;;;;5002249;28;21037;-78
2023/12/21 03:58:31;;;;;;;0.50;0.10;;;8.40;1.00;;;;;;4997539;28;20589;-79
2023/12/21 04:00:58;;;;;;;0.50;0.10;;;8.40;1.00;;;;;;4992055;28;20516;-79
2023/12/21 04:03:26;;;;;;;0.60;0.30;;;8.40;1.00;;;;;;5001883;28;20480;-77
2023/12/21 04:05:54;;;;;;;0.60;0.20;;;8.40;1.00;;;;;;5003214;28;20444;-79
2023/12/21 04:08:24;;;;;;;0.50;0.10;;;8.50;1.00;;;;;;5001811;28;20951;-78
2023/12/21 04:10:52;;;;;;;0.50;0.10;;;8.50;1.00;;;;;;4999155;28;20440;-78
2023/12/21 04:13:19;;;;;;;0.50;0.10;;;8.50;1.00;;;;;;4998143;28;20528;-78
2023/12/21 04:15:48;;;;;;;0.60;0.23;;;8.50;1.00;;;;;;4998886;28;20489;-77
2023/12/21 04:18:16;;;;;;;0.50;0.10;;;8.60;1.00;;;;;;4997506;28;20474;-78
2023/12/21 04:20:44;;;;;;;0.60;0.40;;;8.50;1.00;;;;;;4981773;28;20544;-78
2023/12/21 04:23:11;;;;;;;0.50;0.10;;;8.60;1.00;;;;;;4996760;28;20536;-78
2023/12/21 04:25:41;;;;;;;0.50;0.10;;;8.70;1.00;;;;;;4991232;28;20518;-77
2023/12/21 04:28:09;;;;;;;0.50;0.10;;;8.70;1.00;;;;;;4996857;28;20473;-78
2023/12/21 04:30:37;;;;;;;0.60;0.30;;;8.80;1.00;;;;;;4996305;28;20530;-78
2023/12/21 04:33:05;;;;;;;0.50;0.10;;;8.80;1.00;;;;;;4996656;28;20453;-78
2023/12/21 04:35:33;;;;;;;0.50;0.10;;;8.80;1.00;;;;;;4996445;28;20457;-78
2023/12/21 04:38:01;;;;;;;0.50;0.10;;;8.80;1.00;;;;;;4990335;28;20505;-78
2023/12/21 04:40:29;;;;;;;0.50;0.10;;;8.90;1.00;;;;;;4993566;28;20511;-80
2023/12/21 04:42:58;;;;;;;0.50;0.10;;;8.80;1.00;;;;;;4995442;28;20946;-80
2023/12/21 04:45:26;;;;;;;0.50;0.10;;;8.90;1.00;;;;;;4996688;28;20441;-78
2023/12/21 04:47:54;;;;;;;0.50;0.20;;;8.80;1.00;;;;;;4988883;28;20490;-78
2023/12/21 04:50:22;;;;;;;0.50;0.20;;;8.80;1.00;;;;;;4994908;28;20447;-77
2023/12/21 04:52:51;;;;;;;0.50;0.10;;;8.80;1.00;;;;;;4995456;28;20544;-78
2023/12/21 04:55:19;;;;;;;0.50;0.10;;;8.90;1.00;;;;;;4986976;28;20934;-78
2023/12/21 04:57:48;;;;;;;0.50;0.10;;;8.90;1.00;;;;;;4994607;28;20568;-79
2023/12/21 05:00:18;;;;;;;0.50;0.13;;;8.80;1.00;;;;;;4993970;28;20460;-79
2023/12/21 05:02:46;;;;;;;0.50;0.23;;;8.80;1.00;;;;;;4990055;28;20473;-80
2023/12/21 05:05:14;;;;;;;0.50;0.10;;;8.80;1.00;;;;;;4993480;28;20441;-79
2023/12/21 05:07:42;;;;;;;0.50;0.10;;;8.80;1.00;;;;;;4996614;28;20476;-77
2023/12/21 05:10:10;;;;;;;0.50;0.20;;;8.80;1.00;;;;;;4986361;28;21024;-78
2023/12/21 05:12:39;;;;;;;0.60;0.30;;;;;;;;;;4994393;28;20481;-76
2023/12/21 05:15:08;;;;;;;0.60;0.20;;;8.70;1.00;;;;;;4994211;28;20438;-77
2023/12/21 05:17:37;;;;;;;0.50;0.20;;;8.70;1.00;;;;;;4993924;28;20541;-78
2023/12/21 05:20:07;;;;;;;0.50;0.20;;;8.70;1.00;;;;;;4986047;28;20483;-77
2023/12/21 05:22:35;;;;;;;0.50;0.10;;;8.70;1.00;;;;;;4993143;28;20464;-78
2023/12/21 05:25:04;;;;;;;0.50;0.10;;;8.70;1.00;;;;;;4986350;28;20453;-80
2023/12/21 05:27:32;;;;;;;0.50;0.10;;;8.80;1.00;;;;;;4988281;28;20462;-77
2023/12/21 05:30:03;;;;;;;0.50;0.10;;;8.70;1.00;;;;;;4997575;28;21032;-77
2023/12/21 05:32:31;;;;;;;0.50;0.10;;;8.70;1.00;;;;;;4997146;28;20544;-77
2023/12/21 05:35:00;;;;;;;0.50;0.10;;;8.70;1.00;;;;;;4998219;28;20443;-78
2023/12/21 05:37:29;;;;;;;0.50;0.20;;;8.70;1.00;;;;;;4988303;28;20551;-77
2023/12/21 05:39:57;;;;;;;0.50;0.10;;;;;;;;;;4996367;28;20453;-78
2023/12/21 05:42:26;;;;;;;0.50;0.10;;;8.70;1.00;;;;;;4996507;28;20464;-80
2023/12/21 05:44:54;;;;;;;0.50;0.10;;;8.70;1.00;;;;;;4989173;28;20474;-78
2023/12/21 05:47:22;;;;;;;0.50;0.10;;;8.70;1.00;;;;;;4996640;28;20992;-77
2023/12/21 05:49:49;;;;;;;0.50;0.10;;;8.70;1.00;;;;;;4996907;28;20564;-76
2023/12/21 05:52:19;;;;;;;0.50;0.10;;;8.70;1.00;;;;;;4996710;28;20511;-77
2023/12/21 05:54:47;;;;;;;0.50;0.10;;;8.80;1.00;;;;;;4988810;28;20490;-79
2023/12/21 05:57:15;;;;;;;0.97;0.97;;;8.80;1.00;;;;;;4995872;28;20984;-78
2023/12/21 05:59:43;;;;;;;0.50;0.10;;;;;;;;;;4998001;28;20454;-78
2023/12/21 06:02:11;;;;;;;0.50;0.20;;;8.70;1.00;;;;;;4998381;28;20549;-78
2023/12/21 06:04:39;;;;;;;0.50;0.10;;;8.70;1.00;;;;;;4997552;28;20440;-79
2023/12/21 06:07:07;;;;;;;0.50;0.20;;;8.80;1.00;;;;;;4997377;28;20507;-78
2023/12/21 06:09:36;;;;;;;0.50;0.10;;;8.80;1.00;;;;;;4997456;28;20951;-78
2023/12/21 06:12:05;;;;;;;0.60;0.20;;;8.80;1.00;;;;;;5000249;28;20433;-77
2023/12/21 06:14:36;;;;;;;0.50;0.10;;;8.80;1.00;;;;;;5003684;28;20503;-78
2023/12/21 06:17:04;;;;;;;20.67;2.33;;;8.80;1.00;;;;;;4999868;28;20497;-80
2023/12/21 06:19:32;;;;;;;0.50;0.10;;;8.80;1.00;;;;;;5008934;28;20475;-77
2023/12/21 06:22:00;;;;;;;0.60;0.30;;;8.70;1.00;;;;;;5008539;28;20452;-78
2023/12/21 06:24:28;;;;;;;0.50;0.17;;;8.70;1.00;;;;;;5008464;28;20455;-77
2023/12/21 06:26:58;;;;;;;0.50;0.10;;;;;;;;;;5004068;28;20569;-77
2023/12/21 06:29:26;;;;;;;0.50;0.10;;;8.90;1.00;;;;;;5002175;28;20450;-78
2023/12/21 06:31:54;;;;;;;0.60;0.57;;;8.80;1.00;;;;;;5002394;28;20455;-77
2023/12/21 06:34:23;;;;;;;0.50;0.20;;;8.80;1.00;;;;;;5002601;28;20468;-77
2023/12/21 06:36:51;;;;;;;0.50;0.20;;;8.90;1.00;;;;;;5000054;28;20462;-78
2023/12/21 06:39:19;;;;;;;0.50;0.10;;;8.90;1.00;;;;;;4991186;28;20689;-80
2023/12/21 06:41:47;;;;;;;0.93;0.93;;;8.90;1.00;;;;;;4978445;28;20529;-78
2023/12/21 06:44:16;;;;;;;0.97;0.97;;;8.90;1.00;;;;;;4986518;28;20455;-78
2023/12/21 06:46:44;;;;;;;0.67;0.53;;;8.90;1.00;;;;;;4995333;28;20566;-77
2023/12/21 06:49:12;;;;;;;0.50;0.20;;;;;;;;;;4986101;28;20449;-78
2023/12/21 06:51:41;;;;;;;0.50;0.20;;;9.00;1.00;;;;;;4999556;28;20440;-78
2023/12/21 06:54:09;;;;;;;0.60;0.20;;;9.00;1.00;;;;;;4997027;28;20460;-80
2023/12/21 06:56:38;;;;;;;0.50;0.20;;;;;;;;;;4996144;28;20630;-81
2023/12/21 06:59:06;;;;;;;0.50;0.20;;;9.00;1.00;;;;;;4996910;28;20481;-78
2023/12/21 07:01:35;;;;;;;0.50;0.20;;;9.00;1.00;;;;;;4996441;28;20545;-77
2023/12/21 07:04:03;;;;;;;0.50;0.10;;;9.00;1.00;;;;;;4997364;28;20445;-78
2023/12/21 07:06:32;;;;;;;0.50;0.20;;;;;;;;;;4997405;28;20557;-78
2023/12/21 07:09:00;;;;;;;0.60;0.20;;;9.00;1.00;;;;;;4997497;28;20546;-77
2023/12/21 07:11:27;;;;;;;0.60;0.30;;;9.00;1.00;;;;;;4999712;28;20451;-77
2023/12/21 07:13:55;;;;;;;0.50;0.10;;;9.10;1.00;;;;;;5001362;28;20445;-80
2023/12/21 07:16:24;;;;;;;0.50;0.13;;;9.00;1.00;;;;;;4999799;28;20493;-77
2023/12/21 07:18:53;;;;;;;0.60;0.20;;;9.00;1.00;;;;;;5001821;28;20528;-79
2023/12/21 07:21:21;;;;;;;0.50;0.20;;;9.00;1.00;;;;;;4999895;28;20464;-78
2023/12/21 07:23:49;;;;;;;9.33;7.47;;;9.00;1.00;;;;;;5001138;28;20532;-78
2023/12/21 07:26:17;;;;;;;0.50;0.10;;;9.00;1.00;;;;;;5000945;28;20473;-77
2023/12/21 07:28:46;;;;;;;0.50;0.20;;;9.10;1.00;;;;;;4999217;28;20922;-77
2023/12/21 07:31:15;;;;;;;0.50;0.10;;;9.10;1.00;;;;;;4996852;28;20478;-78
2023/12/21 07:33:44;;;;;;;1.90;0.77;;;;;;;;;;4987417;28;20453;-79
2023/12/21 07:36:15;;;;;;;0.60;0.20;;;9.10;1.00;;;;;;4991945;28;20450;-80
2023/12/21 07:38:43;;;;;;;2.00;0.20;;;9.10;1.00;;;;;;4997535;28;20485;-77
2023/12/21 07:41:12;;;;;;;0.50;0.17;;;;;;;;;;4990365;28;20991;-77
2023/12/21 07:43:41;;;;;;;0.50;0.20;;;;;;;;;;4989627;28;20462;-80
2023/12/21 07:46:09;;;;;;;0.60;0.20;;;9.00;1.00;;;;;;4999067;28;20541;-78
2023/12/21 07:48:37;;;;;;;0.60;0.20;;;9.00;1.00;;;;;;4998169;28;20437;-77
2023/12/21 07:51:07;;;;;;;0.50;0.10;;;9.00;1.00;;;;;;4998658;28;20492;-78
2023/12/21 07:53:36;;;;;;;0.50;0.10;;;;;;;;;;4997000;28;20466;-80
2023/12/21 07:56:05;;;;;;;1.20;0.20;;;9.10;1.00;;;;;;4999267;28;20499;-78
2023/12/21 07:58:33;;;;;;;0.50;0.10;;;9.10;1.00;;;;;;4998501;28;21006;-78
2023/12/21 08:01:02;;;;;;;0.50;0.20;;;9.10;1.00;;;;;;4997294;28;20547;-77
2023/12/21 08:03:31;;;;;;;1.57;0.87;;;;;;;;;;4996039;28;20503;-79
2023/12/21 08:05:59;;;;;;;0.50;0.20;;;;;;;;;;4995686;28;20449;-79
2023/12/21 08:08:27;;;;;;;0.50;0.10;;;;;;;;;;4987757;28;20539;-76
2023/12/21 08:10:57;;;;;;;2.97;0.83;;;9.10;1.00;;;;;;4988633;28;20537;-78
2023/12/21 08:13:26;;;;;;;0.50;0.10;;;9.10;1.00;;;;;;4996052;28;20437;-78
2023/12/21 08:15:54;;;;;;;0.50;0.10;;;9.10;1.00;;;;;;4994865;28;20503;-77
2023/12/21 08:18:22;;;;;;;0.50;0.20;;;9.10;1.00;;;;;;4994756;28;20579;-78
2023/12/21 08:20:51;;;;;;;0.60;0.20;;;9.00;1.00;;;;;;4994638;28;20461;-77
2023/12/21 08:23:19;;;;;;;0.50;0.10;;;9.00;1.00;;;;;;4995212;28;20515;-77
2023/12/21 08:25:47;;;;;;;0.50;0.10;;;9.00;1.00;;;;;;4994903;28;20528;-78
2023/12/21 08:28:17;;;;;;;0.80;0.47;;;9.00;1.00;;;;;;4996392;28;20468;-77
2023/12/21 08:30:45;;;;;;;0.50;0.10;;;;;;;;;;4996114;28;20449;-78
2023/12/21 08:33:13;;;;;;;0.50;0.20;;;8.80;1.00;;;;;;4995465;28;20906;-79
2023/12/21 08:35:41;;;;;;;0.50;0.20;;;8.80;1.00;;;;;;4994347;28;20862;-78
2023/12/21 08:38:10;;;;;;;0.50;0.17;;;8.80;1.00;;;;;;4993901;28;21014;-78
2023/12/21 08:40:38;;;;;;;0.60;0.20;;;8.80;1.00;;;;;;4995342;28;20544;-77
2023/12/21 08:43:07;;;;;;;0.50;0.10;;;;;;;;;;4995044;28;20449;-79
2023/12/21 08:45:36;;;;;;;0.60;0.30;;;8.70;1.00;;;;;;4994876;28;20460;-77
2023/12/21 08:48:05;;;;;;;0.50;0.10;;;8.70;1.00;;;;;;4995812;28;20473;-77
2023/12/21 08:50:33;;;;;;;0.60;0.47;;;8.70;1.00;;;;;;4995798;28;20459;-77
2023/12/21 08:53:02;;;;;;;0.50;0.10;;;8.70;1.00;;;;;;4995503;28;20448;-78
2023/12/21 08:55:30;;;;;;;0.50;0.10;;;8.70;1.00;;;;;;4995600;28;20519;-78
2023/12/21 08:57:59;;;;;;;1.67;0.30;;;8.70;1.00;;;;;;4995313;28;20491;-77
2023/12/21 09:00:27;;;;;;;0.70;0.23;;;8.80;1.00;;;;;;4996096;28;20467;-77
2023/12/21 09:02:57;;;;;;;0.50;0.17;;;8.80;1.00;;;;;;4999749;28;20447;-76
2023/12/21 09:05:25;;;;;;;0.50;0.10;;;8.80;1.00;;;;;;5001855;28;20997;-77
2023/12/21 09:07:53;;;;;;;0.50;0.20;;;8.80;1.00;;;;;;5003869;28;20463;-77
2023/12/21 09:10:21;;;;;;;0.97;0.40;;;8.80;1.00;;;;;;5005744;28;20440;-78
2023/12/21 09:12:49;;;;;;;0.50;0.10;;;8.80;1.00;;;;;;5006124;28;20469;-79
2023/12/21 09:15:17;;;;;;;0.50;0.10;;;8.90;1.00;;;;;;5004830;28;20535;-78
2023/12/21 09:17:46;;;;;;;0.50;0.20;;;8.90;1.00;;;;;;5002081;28;20464;-77
2023/12/21 09:20:15;;;;;;;0.60;0.20;;;8.90;1.00;;;;;;4998701;28;20489;-80
2023/12/21 09:22:43;;;;;;;0.50;0.20;;;8.90;1.00;;;;;;4998803;28;20503;-77
2023/12/21 09:25:15;;;;;;;0.50;0.20;;;8.80;1.00;;;;;;5000639;28;20465;-76
2023/12/21 09:27:44;;;;;;;0.50;0.20;;;8.80;1.00;;;;;;5004386;28;20472;-77
2023/12/21 09:30:13;;;;;;;0.50;0.10;;;8.80;1.00;;;;;;5008335;28;20479;-77
2023/12/21 09:32:41;;;;;;;0.70;0.33;;;8.90;1.00;;;;;;4998697;28;20442;-80
2023/12/21 09:35:10;;;;;;;1.83;0.70;;;8.90;1.00;;;;;;4986618;28;20937;-82
2023/12/21 09:37:40;;;;;;;0.50;0.20;;;;;;;;;;5000226;28;20474;-77
2023/12/21 09:40:10;;;;;;;0.53;0.20;;;8.90;1.00;;;;;;5002888;28;20906;-79
2023/12/21 09:42:44;;;;;;;0.50;0.20;;;8.90;1.00;;;;;;4999446;28;20460;-78
2023/12/21 09:45:19;;;;;;;0.50;0.10;;;8.80;1.00;;;;;;5001137;28;20936;-79
2023/12/21 09:47:48;;;;;;;0.60;0.30;;;9.00;1.00;;;;;;4999480;28;20574;-78
2023/12/21 09:50:19;;;;;;;0.50;0.10;;;9.10;1.00;;;;;;4997121;28;20509;-79
2023/12/21 09:52:49;;;;;;;0.50;0.20;;;9.10;1.00;;;;;;4998275;28;20453;-81
2023/12/21 09:55:20;;;;;;;0.50;0.10;;;9.10;1.00;;;;;;4997661;28;20864;-80
2023/12/21 09:57:49;;;;;;;4.40;3.70;;;9.20;1.00;;;;;;4996195;28;20478;-77
2023/12/21 10:00:17;;;;;;;0.50;0.20;;;9.30;1.00;;;;;;4996809;28;20491;-83
2023/12/21 10:02:45;;;;;;;0.60;0.20;;;9.30;1.00;;;;;;5000200;28;20445;-80
2023/12/21 10:05:14;;;;;;;0.80;0.30;;;;;;;;;;5004743;28;20528;-83
2023/12/21 10:07:42;;;;;;;0.50;0.10;;;9.50;1.00;;;;;;5005021;28;20473;-80
2023/12/21 10:10:12;;;;;;;0.50;0.10;;;;;;;;;;4999261;28;20459;-78
2023/12/21 10:12:43;;;;;;;0.50;0.20;;;9.50;1.00;;;;;;4999223;28;20468;-78
2023/12/21 10:15:11;;;;;;;0.50;0.10;;;9.50;1.00;;;;;;5005858;28;20457;-83
2023/12/21 10:17:40;;;;;;;0.50;0.10;;;9.50;1.00;;;;;;4998047;28;20846;-79
2023/12/21 10:20:11;;;;;;;0.50;0.20;;;;;;;;;;4996431;28;20511;-78
2023/12/21 10:22:40;;;;;;;0.50;0.20;;;9.50;1.00;;;;;;4984048;28;20445;-79
2023/12/21 10:25:09;;;;;;;0.50;0.10;;;9.50;1.00;;;;;;4996729;28;20531;-78
2023/12/21 10:27:40;;;;;;;0.50;0.10;;;9.60;1.00;;;;;;4997044;28;20469;-81
2023/12/21 10:30:11;;;;;;;0.50;0.10;;;9.50;1.00;;;;;;4997512;28;20473;-78
2023/12/21 10:32:39;;;;;;;0.50;0.10;;;9.60;1.00;;;;;;4998211;28;20557;-77
2023/12/21 10:35:07;;;;;;;0.50;0.20;;;9.60;1.00;;;;;;4998911;28;20460;-78
2023/12/21 10:37:39;;;;;;;0.50;0.10;;;9.70;1.00;;;;;;4997644;28;20563;-82
2023/12/21 10:40:08;;;;;;;0.50;0.10;;;;;;;;;;4983952;28;20479;-79
2023/12/21 10:42:37;;;;;;;0.50;0.17;;;9.60;1.00;;;;;;4999145;28;20451;-79
2023/12/21 10:45:06;;;;;;;0.60;0.33;;;9.60;1.00;;;;;;4984495;28;20484;-78
2023/12/21 10:47:49;;;;;;;0.60;0.30;;;;;;;;;;4998228;28;20475;-78
2023/12/21 10:50:18;;;;;;;0.60;0.20;;;;;;;;;;5000468;28;20450;-79
2023/12/21 10:52:47;;;;;;;0.60;0.47;;;9.70;1.00;;;;;;4996559;28;20477;-81
2023/12/21 10:55:17;;;;;;;0.50;0.10;;;9.60;1.00;;;;;;5000506;28;20466;-82
2023/12/21 10:57:49;;;;;;;2.70;1.80;;;9.70;1.00;;;;;;4998754;28;20514;-80
2023/12/21 11:00:17;;;;;;;1.43;0.93;;;9.70;1.00;;;;;;4998292;28;20479;-79
2023/12/21 11:02:46;;;;;;;0.60;0.17;;;9.70;1.00;;;;;;4998631;28;20859;-79
2023/12/21 11:05:22;;;;;;;0.70;0.30;;;9.60;1.00;;;;;;4999414;28;20951;-77
2023/12/21 11:07:53;;;;;;;0.70;0.43;;;9.60;1.00;;;;;;4998217;28;20492;-77
2023/12/21 11:10:22;;;;;;;0.50;0.10;;;;;;;;;;4998330;28;20503;-78
2023/12/21 11:12:51;;;;;;;0.50;0.30;;;9.70;1.00;;;;;;4996630;28;20457;-78
2023/12/21 11:15:21;;;;;;;0.60;0.20;;;9.60;1.00;;;;;;4996442;28;20466;-78
2023/12/21 11:17:53;;;;;;;1.67;0.37;;;9.50;1.00;;;;;;4995671;28;20557;-81
2023/12/21 11:20:27;;;;;;;0.77;0.70;;;9.50;1.00;;;;;;4996428;28;20536;-78
2023/12/21 11:23:12;;;;;;;0.60;0.23;;;9.50;1.00;;;;;;4998469;28;20847;-79
2023/12/21 11:25:40;;;;;;;0.70;0.20;;;9.60;1.00;;;;;;5000885;28;20451;-81
2023/12/21 11:28:10;;;;;;;0.50;0.10;;;9.60;1.00;;;;;;4994688;28;20477;-81
2023/12/21 11:30:38;;;;;;;0.50;0.20;;;9.50;1.00;;;;;;5001726;28;20477;-79
2023/12/21 11:33:07;;;;;;;0.60;0.20;;;9.50;1.00;;;;;;5000920;28;20934;-79
2023/12/21 11:35:35;;;;;;;0.60;0.30;;;;;;;;;;5001267;28;20441;-80
2023/12/21 11:38:06;;;;;;;0.50;0.10;;;9.60;1.00;;;;;;5002016;28;20511;-80
2023/12/21 11:40:35;;;;;;;0.50;0.10;;;;;;;;;;5000251;28;20576;-80
2023/12/21 11:43:08;;;;;;;0.73;0.30;;;9.60;1.00;;;;;;5002540;28;20460;-82
2023/12/21 11:45:38;;;;;;;0.50;0.20;;;;;;;;;;5001693;28;20484;-81
2023/12/21 11:48:08;;;;;;;0.50;0.10;;;;;;;;;;4992378;28;20486;-81
2023/12/21 11:50:36;;;;;;;0.50;0.20;;;9.70;1.00;;;;;;4997777;28;20449;-79
2023/12/21 11:53:08;;;;;;;0.80;0.30;;;9.70;1.00;;;;;;4997641;28;20533;-80
2023/12/21 11:55:44;;;;;;;0.50;0.20;;;9.70;1.00;;;;;;4990488;28;20447;-79
2023/12/21 11:58:18;;;;;;;0.50;0.10;;;9.70;1.00;;;;;;4990518;28;20559;-80
2023/12/21 12:00:49;;;;;;;1.37;0.40;;;9.70;1.00;;;;;;4997575;28;20540;-79
2023/12/21 12:03:18;;;;;;;0.50;0.20;;;9.70;1.00;;;;;;4999159;28;20445;-82
2023/12/21 12:05:48;;;;;;;0.50;0.10;;;;;;;;;;4999052;28;20473;-80
2023/12/21 12:08:20;;;;;;;0.50;0.20;;;9.70;1.00;;;;;;4997180;28;20477;-80
2023/12/21 12:10:48;;;;;;;0.60;0.30;;;9.70;1.00;;;;;;4998641;28;20518;-79
2023/12/21 12:13:21;;;;;;;0.50;0.17;;;9.40;1.00;;;;;;4984979;28;20471;-80
2023/12/21 12:15:52;;;;;;;0.60;0.43;;;9.70;1.00;;;;;;4997243;28;20453;-82
2023/12/21 12:18:21;;;;;;;0.50;0.20;;;9.70;1.00;;;;;;4999263;28;20476;-80
2023/12/21 12:20:50;;;;;;;0.60;0.30;;;9.70;1.00;;;;;;4998007;28;20527;-81
2023/12/21 12:23:19;;;;;;;0.60;0.20;;;9.70;1.00;;;;;;4999338;28;20447;-81
2023/12/21 12:25:46;;;;;;;0.50;0.10;;;9.70;1.00;;;;;;4999112;28;20461;-82
2023/12/21 12:28:18;;;;;;;0.60;0.20;;;;;;;;;;4993461;28;20461;-79
2023/12/21 12:30:48;;;;;;;1.10;0.93;;;9.80;1.00;;;;;;4998510;28;20506;-79
2023/12/21 12:33:17;;;;;;;27.17;1.27;;;9.70;1.00;;;;;;4999339;28;20461;-80
2023/12/21 12:35:49;;;;;;;0.70;0.20;;;9.70;1.00;;;;;;4999534;28;20817;-81
2023/12/21 12:38:17;;;;;;;0.50;0.20;;;9.70;1.00;;;;;;5014880;28;20485;-80
2023/12/21 12:40:49;;;;;;;0.50;0.10;;;9.70;4.30;;;;;;5012600;28;20477;-78
2023/12/21 12:43:19;;;;;;;0.60;0.30;;;;;;;;;;5007073;28;20458;-79
2023/12/21 12:45:49;;;;;;;0.70;0.20;;;9.80;23.20;;;;;;5002318;28;20450;-80
2023/12/21 12:48:18;;;;;;;0.70;0.20;;;9.80;27.10;;;;;;5002124;28;20507;-79
2023/12/21 12:50:47;;;;;;;1.20;0.37;;;9.80;58.60;;;;;;5001751;28;20453;-83
2023/12/21 12:53:16;;;;;;;1.40;0.20;;;9.80;52.20;;;;;;4991324;28;20474;-80
2023/12/21 12:55:45;;;;;;;1.50;0.20;;;9.80;47.10;;;;;;4999024;28;20441;-79
2023/12/21 12:58:15;;;;;;;1.47;0.20;;;;;;;;;;4991994;28;20546;-80
2023/12/21 13:00:43;;;;;;;0.57;0.10;;;;;;;;;;4997888;28;20563;-81
2023/12/21 13:03:13;;;;;;;0.40;0.20;;;;;;;;;;4998128;28;20445;-79
2023/12/21 13:05:41;;;;;;;0.70;0.20;;;9.80;27.20;;;;;;4997790;28;20486;-79
2023/12/21 13:08:09;;;;;;;0.70;0.20;;;9.90;17.70;;;;;;4997233;28;20565;-81
2023/12/21 13:10:37;;;;;;;0.60;0.20;;;9.90;23.00;;;;;;5000690;28;20490;-79
2023/12/21 13:13:06;;;;;;;0.60;0.20;;;9.90;15.40;;;;;;4998337;28;20446;-80
2023/12/21 13:15:34;;;;;;;0.60;0.30;;;10.00;8.30;;;;;;4991613;28;20449;-79
2023/12/21 13:18:02;;;;;;;0.60;0.40;;;9.90;20.70;;;;;;5000485;28;20612;-80
2023/12/21 13:20:32;;;;;;;1.60;0.40;;;;;;;;;;5011287;28;20484;-80
2023/12/21 13:23:02;;;;;;;1.97;1.80;;;;;;;;;;5014601;28;20456;-79
2023/12/21 13:25:30;;;;;;;9.10;5.63;;;10.10;13.80;;;;;;5013991;28;20825;-80
2023/12/21 13:27:58;;;;;;;0.50;0.20;;;10.10;5.30;;;;;;5013534;28;20450;-80